createdAt,value
2018-04-27T00:00:53.983Z,41.75
2018-04-27T00:01:54.146Z,44.92
2018-04-27T00:02:54.309Z,51.51
2018-04-27T00:03:54.474Z,68.85
2018-04-27T00:04:54.635Z,53.71
2018-04-27T00:05:55.527Z,44.43
2018-04-27T00:06:54.939Z,55.66
2018-04-27T00:10:38.236Z,54.69
2018-04-27T00:11:37.771Z,65.19
2018-04-27T00:12:37.922Z,66.65
2018-04-27T00:13:38.092Z,49.56
2018-04-27T00:14:38.245Z,49.80
2018-04-27T00:15:38.416Z,55.42
2018-04-27T00:16:38.579Z,59.81
2018-04-27T00:17:38.743Z,43.21
2018-04-27T00:18:38.907Z,44.43
2018-04-27T00:22:21.324Z,44.19
2018-04-27T00:23:21.488Z,52.98
2018-04-27T00:24:21.648Z,51.76
2018-04-27T00:25:21.807Z,49.56
2018-04-27T00:26:21.970Z,45.41
2018-04-27T00:27:22.134Z,41.26
2018-04-27T00:28:22.298Z,42.72
2018-04-27T00:29:22.461Z,47.85
2018-04-27T00:30:22.624Z,53.22
2018-04-27T00:31:22.784Z,45.41
2018-04-27T00:32:22.946Z,55.42
2018-04-27T00:33:23.107Z,46.63
2018-04-27T00:34:23.349Z,55.18
2018-04-27T00:35:23.433Z,51.51
2018-04-27T00:38:56.352Z,46.39
2018-04-27T00:39:56.513Z,50.05
2018-04-27T00:40:56.681Z,48.58
2018-04-27T00:41:56.839Z,58.11
2018-04-27T00:42:57.010Z,49.80
2018-04-27T00:43:57.174Z,41.50
2018-04-27T00:44:57.330Z,42.48
2018-04-27T00:45:58.236Z,48.58
2018-04-27T00:46:57.643Z,46.63
2018-04-27T00:47:57.807Z,43.95
2018-04-27T00:48:57.978Z,49.32
2018-04-27T00:49:58.139Z,53.47
2018-04-27T00:50:58.301Z,45.41
2018-04-27T00:51:58.467Z,45.65
2018-04-27T00:55:41.760Z,51.03
2018-04-27T00:56:41.293Z,47.36
2018-04-27T00:57:41.462Z,43.70
2018-04-27T00:58:41.612Z,42.97
2018-04-27T00:59:41.772Z,45.90
2018-04-27T01:00:41.948Z,44.92
2018-04-27T01:01:42.105Z,73.97
2018-04-27T01:02:42.268Z,51.03
2018-04-27T01:03:42.433Z,48.83
2018-04-27T01:04:42.601Z,48.34
2018-04-27T01:05:42.757Z,52.00
2018-04-27T01:06:42.916Z,57.37
2018-04-27T01:07:43.070Z,46.39
2018-04-27T01:08:43.232Z,47.85
2018-04-27T01:12:15.662Z,53.71
2018-04-27T01:13:15.827Z,57.62
2018-04-27T01:14:16.524Z,43.70
2018-04-27T01:15:16.186Z,53.47
2018-04-27T01:16:16.346Z,50.78
2018-04-27T01:17:16.506Z,49.32
2018-04-27T01:18:16.667Z,51.03
2018-04-27T01:19:16.827Z,43.21
2018-04-27T01:20:16.987Z,54.69
2018-04-27T01:23:49.425Z,44.92
2018-04-27T01:24:49.575Z,48.10
2018-04-27T01:25:49.738Z,45.17
2018-04-27T01:26:49.903Z,43.70
2018-04-27T01:27:50.066Z,47.61
2018-04-27T01:28:50.226Z,48.58
2018-04-27T01:29:50.389Z,50.29
2018-04-27T01:30:50.551Z,61.52
2018-04-27T01:31:50.716Z,49.56
2018-04-27T01:32:50.904Z,53.22
2018-04-27T01:33:51.039Z,47.85
2018-04-27T01:34:51.203Z,50.78
2018-04-27T01:35:51.359Z,50.78
2018-04-27T01:36:51.523Z,48.83
2018-04-27T01:40:34.252Z,53.22
2018-04-27T01:41:34.412Z,51.51
2018-04-27T01:42:34.575Z,46.39
2018-04-27T01:43:34.745Z,47.36
2018-04-27T01:44:34.901Z,51.27
2018-04-27T01:45:35.066Z,60.55
2018-04-27T01:46:35.226Z,61.77
2018-04-27T01:47:35.386Z,47.85
2018-04-27T01:48:35.550Z,50.29
2018-04-27T01:49:35.709Z,50.05
2018-04-27T01:50:35.876Z,44.68
2018-04-27T01:51:36.040Z,44.92
2018-04-27T01:52:36.205Z,56.40
2018-04-27T01:53:36.365Z,50.05
2018-04-27T01:57:19.082Z,52.25
2018-04-27T01:58:19.245Z,53.22
2018-04-27T01:59:19.400Z,51.51
2018-04-27T02:00:19.573Z,47.12
2018-04-27T02:01:19.727Z,49.56
2018-04-27T02:02:19.889Z,56.15
2018-04-27T02:03:20.051Z,47.61
2018-04-27T02:04:20.211Z,47.36
2018-04-27T02:05:20.374Z,45.65
2018-04-27T02:06:20.541Z,45.65
2018-04-27T02:07:20.706Z,53.22
2018-04-27T02:08:20.858Z,52.25
2018-04-27T02:09:21.027Z,56.40
2018-04-27T02:10:21.178Z,50.05
2018-04-27T02:14:03.892Z,51.51
2018-04-27T02:15:04.056Z,69.82
2018-04-27T02:16:04.214Z,47.12
2018-04-27T02:17:04.375Z,48.34
2018-04-27T02:18:04.527Z,59.81
2018-04-27T02:19:04.688Z,61.77
2018-04-27T02:20:04.854Z,55.66
2018-04-27T02:21:05.005Z,47.36
2018-04-27T02:22:05.175Z,54.93
2018-04-27T02:25:47.593Z,64.70
2018-04-27T02:26:47.752Z,66.16
2018-04-27T02:27:47.912Z,49.56
2018-04-27T02:28:48.076Z,53.71
2018-04-27T02:29:48.236Z,49.07
2018-04-27T02:30:48.401Z,62.74
2018-04-27T02:31:48.561Z,65.43
2018-04-27T02:32:48.728Z,71.29
2018-04-27T02:33:48.917Z,51.76
2018-04-27T02:34:49.045Z,49.32
2018-04-27T02:35:49.216Z,54.44
2018-04-27T02:36:51.004Z,51.27
2018-04-27T02:37:49.545Z,63.23
2018-04-27T02:38:49.708Z,57.13
2018-04-27T02:42:32.127Z,53.96
2018-04-27T02:43:32.916Z,65.67
2018-04-27T02:44:32.445Z,47.85
2018-04-27T02:45:32.614Z,54.69
2018-04-27T02:46:32.768Z,52.73
2018-04-27T02:47:32.934Z,48.10
2018-04-27T02:48:33.090Z,52.98
2018-04-27T02:49:33.250Z,45.90
2018-04-27T02:50:33.410Z,61.28
2018-04-27T02:51:33.573Z,52.00
2018-04-27T02:52:33.734Z,55.42
2018-04-27T02:53:33.903Z,52.49
2018-04-27T02:54:34.062Z,60.30
2018-04-27T02:55:34.217Z,63.23
2018-04-27T02:59:16.951Z,65.19
2018-04-27T03:00:17.113Z,67.14
2018-04-27T03:01:17.273Z,81.54
2018-04-27T03:02:17.429Z,69.82
2018-04-27T03:03:17.639Z,74.46
2018-04-27T03:04:17.750Z,57.62
2018-04-27T03:05:17.915Z,59.08
2018-04-27T03:06:18.079Z,62.74
2018-04-27T03:07:18.240Z,72.51
2018-04-27T03:11:00.671Z,61.77
2018-04-27T03:12:00.834Z,48.34
2018-04-27T03:13:00.993Z,48.34
2018-04-27T03:14:01.159Z,52.73
2018-04-27T03:15:01.319Z,54.20
2018-04-27T03:16:01.478Z,63.72
2018-04-27T03:17:01.638Z,68.12
2018-04-27T03:18:01.798Z,55.42
2018-04-27T03:19:01.957Z,55.91
2018-04-27T03:20:02.127Z,56.64
2018-04-27T03:21:02.291Z,57.37
2018-04-27T03:22:02.452Z,76.42
2018-04-27T03:23:02.602Z,58.84
2018-04-27T03:24:02.772Z,58.11
2018-04-27T03:27:45.485Z,66.41
2018-04-27T03:28:45.649Z,60.30
2018-04-27T03:29:45.792Z,59.57
2018-04-27T03:30:45.963Z,58.11
2018-04-27T03:31:46.126Z,70.80
2018-04-27T03:32:46.286Z,56.64
2018-04-27T03:33:46.473Z,61.04
2018-04-27T03:34:46.609Z,63.23
2018-04-27T03:35:46.769Z,66.16
2018-04-27T03:36:46.930Z,55.42
2018-04-27T03:37:47.095Z,57.62
2018-04-27T03:38:47.258Z,61.28
2018-04-27T03:39:47.415Z,55.91
2018-04-27T03:40:47.575Z,53.96
2018-04-27T03:44:30.001Z,71.78
2018-04-27T03:45:30.206Z,82.52
2018-04-27T03:46:30.323Z,84.72
2018-04-27T03:47:30.491Z,76.42
2018-04-27T03:48:30.647Z,69.09
2018-04-27T03:49:30.807Z,70.31
2018-04-27T03:50:30.966Z,72.27
2018-04-27T03:51:31.131Z,71.78
2018-04-27T03:52:31.301Z,71.04
2018-04-27T03:53:31.452Z,56.88
2018-04-27T03:54:31.620Z,71.29
2018-04-27T03:55:31.800Z,67.63
2018-04-27T03:56:31.970Z,68.12
2018-04-27T03:57:32.119Z,73.73
2018-04-27T04:01:14.609Z,71.04
2018-04-27T04:02:14.702Z,65.19
2018-04-27T04:03:14.884Z,73.97
2018-04-27T04:04:15.046Z,70.31
2018-04-27T04:05:15.209Z,67.38
2018-04-27T04:06:15.378Z,71.53
2018-04-27T04:07:15.528Z,63.48
2018-04-27T04:08:15.696Z,62.74
2018-04-27T04:09:15.924Z,58.84
2018-04-27T04:10:16.018Z,63.48
2018-04-27T04:11:16.180Z,55.66
2018-04-27T04:12:16.341Z,63.96
2018-04-27T04:13:16.503Z,73.00
2018-04-27T04:14:25.598Z,55.18
2018-04-27T04:15:16.881Z,63.48
2018-04-27T04:16:17.042Z,74.46
2018-04-27T04:17:17.206Z,58.84
2018-04-27T04:18:17.370Z,64.45
2018-04-27T04:19:17.533Z,65.19
2018-04-27T04:20:17.693Z,61.77
2018-04-27T04:21:17.862Z,75.20
2018-04-27T04:22:18.021Z,66.41
2018-04-27T04:23:18.180Z,58.84
2018-04-27T04:24:18.344Z,57.13
2018-04-27T04:25:18.500Z,68.85
2018-04-27T04:26:18.665Z,75.68
2018-04-27T04:27:18.825Z,68.12
2018-04-27T04:28:18.987Z,64.70
2018-04-27T04:29:19.147Z,65.92
2018-04-27T04:33:01.566Z,65.19
2018-04-27T04:34:01.724Z,69.58
2018-04-27T04:35:01.885Z,80.81
2018-04-27T04:36:02.035Z,79.10
2018-04-27T04:37:02.196Z,67.87
2018-04-27T04:38:02.358Z,66.65
2018-04-27T04:39:02.524Z,67.38
2018-04-27T04:40:09.863Z,66.89
2018-04-27T04:41:02.892Z,65.43
2018-04-27T04:42:03.053Z,68.12
2018-04-27T04:43:03.215Z,62.99
2018-04-27T04:44:11.061Z,71.53
2018-04-27T04:45:03.683Z,57.13
2018-04-27T04:46:03.774Z,66.41
2018-04-27T04:47:03.913Z,72.51
2018-04-27T04:48:04.104Z,67.38
2018-04-27T04:49:04.260Z,83.74
2018-04-27T04:50:04.423Z,64.45
2018-04-27T04:51:04.582Z,62.50
2018-04-27T04:52:04.744Z,68.60
2018-04-27T04:53:04.909Z,65.19
2018-04-27T04:54:05.097Z,72.51
2018-04-27T04:55:05.243Z,60.30
2018-04-27T04:56:05.397Z,71.29
2018-04-27T04:57:05.563Z,68.36
2018-04-27T04:58:05.715Z,68.36
2018-04-27T05:01:48.933Z,67.87
2018-04-27T05:02:48.586Z,68.36
2018-04-27T05:03:48.785Z,67.87
2018-04-27T05:04:49.500Z,66.41
2018-04-27T05:05:56.958Z,80.32
2018-04-27T05:06:49.220Z,77.15
2018-04-27T05:07:49.383Z,64.70
2018-04-27T05:08:49.544Z,62.01
2018-04-27T05:09:49.718Z,75.68
2018-04-27T05:10:49.900Z,73.00
2018-04-27T05:11:50.046Z,79.10
2018-04-27T05:12:50.206Z,81.30
2018-04-27T05:13:50.360Z,74.95
2018-04-27T05:14:50.531Z,68.85
2018-04-27T05:15:58.659Z,81.05
2018-04-27T05:16:50.813Z,78.13
2018-04-27T05:17:53.529Z,75.20
2018-04-27T05:18:51.187Z,72.75
2018-04-27T05:19:51.350Z,78.86
2018-04-27T05:20:51.508Z,66.65
2018-04-27T05:21:51.676Z,74.71
2018-04-27T05:22:51.816Z,79.83
2018-04-27T05:23:51.989Z,70.56
2018-04-27T05:24:52.164Z,68.60
2018-04-27T05:25:52.709Z,73.24
2018-04-27T05:27:00.586Z,68.85
2018-04-27T05:27:52.710Z,67.14
2018-04-27T05:28:52.755Z,75.93
2018-04-27T05:29:53.123Z,72.75
2018-04-27T05:30:53.031Z,73.97
2018-04-27T05:31:53.180Z,85.21
2018-04-27T05:32:53.378Z,73.97
2018-04-27T05:33:53.546Z,72.27
2018-04-27T05:34:53.756Z,83.74
2018-04-27T05:35:53.920Z,84.72
2018-04-27T05:36:54.987Z,75.44
2018-04-27T05:37:54.236Z,73.00
2018-04-27T05:38:54.393Z,75.20
2018-04-27T05:39:54.606Z,73.24
2018-04-27T05:40:54.772Z,76.66
2018-04-27T05:41:54.992Z,74.22
2018-04-27T05:43:03.787Z,73.49
2018-04-27T05:43:55.308Z,68.85
2018-04-27T05:44:55.469Z,69.82
2018-04-27T05:45:55.645Z,80.32
2018-04-27T05:46:55.804Z,88.38
2018-04-27T05:47:55.943Z,76.90
2018-04-27T05:48:56.178Z,69.82
2018-04-27T05:49:56.272Z,68.12
2018-04-27T05:50:56.445Z,68.36
2018-04-27T05:51:56.605Z,69.82
2018-04-27T05:52:56.770Z,71.53
2018-04-27T05:56:39.499Z,68.12
2018-04-27T05:57:47.479Z,68.36
2018-04-27T05:58:39.892Z,81.30
2018-04-27T05:59:40.079Z,72.02
2018-04-27T06:00:40.275Z,73.24
2018-04-27T06:01:40.437Z,74.46
2018-04-27T06:02:40.596Z,86.67
2018-04-27T06:03:40.763Z,71.04
2018-04-27T06:04:40.949Z,83.25
2018-04-27T06:05:41.116Z,74.71
2018-04-27T06:06:41.259Z,72.02
2018-04-27T06:07:41.418Z,82.52
2018-04-27T06:08:41.587Z,71.78
2018-04-27T06:09:41.755Z,85.21
2018-04-27T06:10:41.915Z,77.88
2018-04-27T06:11:42.076Z,71.53
2018-04-27T06:15:24.509Z,67.87
2018-04-27T06:16:24.674Z,74.95
2018-04-27T06:17:24.838Z,69.09
2018-04-27T06:18:25.004Z,79.83
2018-04-27T06:19:25.167Z,72.51
2018-04-27T06:20:25.332Z,78.13
2018-04-27T06:21:25.513Z,78.37
2018-04-27T06:22:25.665Z,78.13
2018-04-27T06:23:27.359Z,81.54
2018-04-27T06:24:26.025Z,73.73
2018-04-27T06:25:34.146Z,68.60
2018-04-27T06:26:26.303Z,69.82
2018-04-27T06:27:26.468Z,80.08
2018-04-27T06:28:26.647Z,75.93
2018-04-27T06:29:26.800Z,65.19
2018-04-27T06:30:26.960Z,72.27
2018-04-27T06:31:27.114Z,79.83
2018-04-27T06:32:27.268Z,78.13
2018-04-27T06:33:34.620Z,67.63
2018-04-27T06:34:27.655Z,70.31
2018-04-27T06:35:27.825Z,74.46
2018-04-27T06:36:27.987Z,74.95
2018-04-27T06:37:28.150Z,79.35
2018-04-27T06:38:28.315Z,68.36
2018-04-27T06:39:28.544Z,69.82
2018-04-27T06:40:28.643Z,76.66
2018-04-27T06:41:28.811Z,72.27
2018-04-27T06:42:28.967Z,75.93
2018-04-27T06:43:29.130Z,75.93
2018-04-27T06:44:29.295Z,68.12
2018-04-27T06:45:29.451Z,69.34
2018-04-27T06:46:29.605Z,66.16
2018-04-27T06:47:29.769Z,71.78
2018-04-27T06:51:12.185Z,73.00
2018-04-27T06:52:12.367Z,67.14
2018-04-27T06:53:12.519Z,77.15
2018-04-27T06:54:12.663Z,67.63
2018-04-27T06:55:12.818Z,71.53
2018-04-27T06:56:13.002Z,73.49
2018-04-27T06:57:13.167Z,74.95
2018-04-27T06:58:13.337Z,68.36
2018-04-27T06:59:13.516Z,70.07
2018-04-27T07:00:13.662Z,73.97
2018-04-27T07:01:13.832Z,77.88
2018-04-27T07:02:13.991Z,75.93
2018-04-27T07:03:14.158Z,70.56
2018-04-27T07:04:14.323Z,66.89
2018-04-27T07:07:56.746Z,75.93
2018-04-27T07:08:56.910Z,77.15
2018-04-27T07:09:57.081Z,90.09
2018-04-27T07:10:57.236Z,72.02
2018-04-27T07:11:57.399Z,68.36
2018-04-27T07:12:57.577Z,75.20
2018-04-27T07:13:57.738Z,73.49
2018-04-27T07:14:57.903Z,85.21
2018-04-27T07:16:05.957Z,68.60
2018-04-27T07:16:58.267Z,66.41
2018-04-27T07:17:58.368Z,72.02
2018-04-27T07:18:58.497Z,66.16
2018-04-27T07:19:58.677Z,68.85
2018-04-27T07:20:58.820Z,76.66
2018-04-27T07:21:58.984Z,70.56
2018-04-27T07:23:06.602Z,70.07
2018-04-27T07:23:59.251Z,76.17
2018-04-27T07:24:59.416Z,76.90
2018-04-27T07:25:59.620Z,64.70
2018-04-27T07:26:59.745Z,76.17
2018-04-27T07:27:59.912Z,68.12
2018-04-27T07:29:00.076Z,74.95
2018-04-27T07:30:00.240Z,72.51
2018-04-27T07:31:00.413Z,77.64
2018-04-27T07:32:00.578Z,76.42
2018-04-27T07:33:01.598Z,67.63
2018-04-27T07:34:00.901Z,72.27
2018-04-27T07:35:01.101Z,75.93
2018-04-27T07:36:01.221Z,75.20
2018-04-27T07:37:01.387Z,78.37
2018-04-27T07:40:33.820Z,69.09
2018-04-27T07:41:33.986Z,74.95
2018-04-27T07:42:34.151Z,76.90
2018-04-27T07:43:34.306Z,70.56
2018-04-27T07:44:34.489Z,75.44
2018-04-27T07:45:34.657Z,70.07
2018-04-27T07:46:34.821Z,75.68
2018-04-27T07:47:34.980Z,69.09
2018-04-27T07:48:35.150Z,69.34
2018-04-27T07:52:17.866Z,77.15
2018-04-27T07:53:18.035Z,72.51
2018-04-27T07:54:18.199Z,79.83
2018-04-27T07:55:18.508Z,73.97
2018-04-27T07:56:18.533Z,66.89
2018-04-27T07:57:18.706Z,75.68
2018-04-27T07:58:18.856Z,74.46
2018-04-27T07:59:19.016Z,66.41
2018-04-27T08:00:19.171Z,68.85
2018-04-27T08:04:01.893Z,65.67
2018-04-27T08:05:02.060Z,68.12
2018-04-27T08:06:02.232Z,69.58
2018-04-27T08:07:02.394Z,71.04
2018-04-27T08:08:02.563Z,74.46
2018-04-27T08:09:02.726Z,70.56
2018-04-27T08:10:02.894Z,75.93
2018-04-27T08:11:03.061Z,82.03
2018-04-27T08:12:03.259Z,74.71
2018-04-27T08:15:35.995Z,79.10
2018-04-27T08:16:36.182Z,84.47
2018-04-27T08:17:36.337Z,67.14
2018-04-27T08:18:37.134Z,70.31
2018-04-27T08:19:36.639Z,68.36
2018-04-27T08:20:36.813Z,73.00
2018-04-27T08:21:36.964Z,65.67
2018-04-27T08:22:37.202Z,71.53
2018-04-27T08:23:37.292Z,70.80
2018-04-27T08:27:10.069Z,85.94
2018-04-27T08:28:10.235Z,69.09
2018-04-27T08:29:10.402Z,68.12
2018-04-27T08:30:10.578Z,84.23
2018-04-27T08:31:10.734Z,68.60
2018-04-27T08:32:10.899Z,78.61
2018-04-27T08:33:11.074Z,73.97
2018-04-27T08:34:11.233Z,73.49
2018-04-27T08:35:11.398Z,78.61
2018-04-27T08:38:44.125Z,75.44
2018-04-27T08:39:44.295Z,78.13
2018-04-27T08:40:44.496Z,74.71
2018-04-27T08:41:44.636Z,73.97
2018-04-27T08:42:44.806Z,63.72
2018-04-27T08:43:45.023Z,69.58
2018-04-27T08:44:45.138Z,69.58
2018-04-27T08:45:45.315Z,66.89
2018-04-27T08:46:45.499Z,90.33
2018-04-27T08:47:45.655Z,71.29
2018-04-27T08:48:45.819Z,68.12
2018-04-27T08:49:45.991Z,74.46
2018-04-27T08:50:46.143Z,70.07
2018-04-27T08:51:46.332Z,74.22
2018-04-27T08:55:28.745Z,66.89
2018-04-27T08:56:28.903Z,73.00
2018-04-27T08:57:29.075Z,72.51
2018-04-27T08:58:29.251Z,77.64
2018-04-27T08:59:29.412Z,68.36
2018-04-27T09:00:29.576Z,69.09
2018-04-27T09:01:29.746Z,71.53
2018-04-27T09:02:30.632Z,72.27
2018-04-27T09:03:30.049Z,70.07
2018-04-27T09:04:30.218Z,73.73
2018-04-27T09:05:30.381Z,71.78
2018-04-27T09:06:30.549Z,66.16
2018-04-27T09:07:30.716Z,66.16
2018-04-27T09:08:30.880Z,98.14
2018-04-27T09:12:13.597Z,75.93
2018-04-27T09:13:13.767Z,72.75
2018-04-27T09:14:13.936Z,76.90
2018-04-27T09:15:14.103Z,78.13
2018-04-27T09:16:14.350Z,70.31
2018-04-27T09:17:14.447Z,84.23
2018-04-27T09:18:14.616Z,69.09
2018-04-27T09:19:14.782Z,78.13
2018-04-27T09:20:14.941Z,70.56
2018-04-27T09:21:15.166Z,82.03
2018-04-27T09:22:15.272Z,76.90
2018-04-27T09:23:23.532Z,71.78
2018-04-27T09:24:15.557Z,70.07
2018-04-27T09:25:15.725Z,69.58
2018-04-27T09:26:23.939Z,72.02
2018-04-27T09:27:16.096Z,74.46
2018-04-27T09:28:16.307Z,71.29
2018-04-27T09:29:16.470Z,69.58
2018-04-27T09:30:16.717Z,73.49
2018-04-27T09:31:16.779Z,72.75
2018-04-27T09:32:16.950Z,71.78
2018-04-27T09:33:17.118Z,71.04
2018-04-27T09:34:17.273Z,71.29
2018-04-27T09:35:17.441Z,78.86
2018-04-27T09:36:18.223Z,74.22
2018-04-27T09:40:00.320Z,78.13
2018-04-27T09:41:00.514Z,77.15
2018-04-27T09:42:00.660Z,69.09
2018-04-27T09:43:00.832Z,70.80
2018-04-27T09:44:01.004Z,68.60
2018-04-27T09:45:01.172Z,73.00
2018-04-27T09:46:01.339Z,73.00
2018-04-27T09:47:01.508Z,75.68
2018-04-27T09:48:01.674Z,72.51
2018-04-27T09:49:01.843Z,69.58
2018-04-27T09:50:02.012Z,83.74
2018-04-27T09:51:02.175Z,73.49
2018-04-27T09:52:02.341Z,79.10
2018-04-27T09:53:02.511Z,75.68
2018-04-27T09:56:42.488Z,74.95
2018-04-27T09:57:35.232Z,79.10
2018-04-27T09:58:35.307Z,71.53
2018-04-27T09:59:43.189Z,73.97
2018-04-27T10:00:35.601Z,73.24
2018-04-27T10:01:35.768Z,70.80
2018-04-27T10:02:35.933Z,71.29
2018-04-27T10:03:36.100Z,67.63
2018-04-27T10:04:36.266Z,70.31
2018-04-27T10:05:36.467Z,70.31
2018-04-27T10:06:36.606Z,86.67
2018-04-27T10:07:36.774Z,78.13
2018-04-27T10:08:36.947Z,70.80
2018-04-27T10:09:37.115Z,77.88
2018-04-27T10:13:19.851Z,66.41
2018-04-27T10:14:20.017Z,66.65
2018-04-27T10:15:20.182Z,67.38
2018-04-27T10:16:20.348Z,71.29
2018-04-27T10:17:22.406Z,66.65
2018-04-27T10:18:20.693Z,73.00
2018-04-27T10:19:20.859Z,68.60
2018-04-27T10:20:21.027Z,72.75
2018-04-27T10:21:21.927Z,66.41
2018-04-27T10:24:53.917Z,78.86
2018-04-27T10:25:54.082Z,71.53
2018-04-27T10:26:54.251Z,79.59
2018-04-27T10:27:54.417Z,71.04
2018-04-27T10:28:54.622Z,81.79
2018-04-27T10:29:54.806Z,76.66
2018-04-27T10:30:54.968Z,73.24
2018-04-27T10:31:55.133Z,71.78
2018-04-27T10:32:55.299Z,74.46
2018-04-27T10:36:38.143Z,76.90
2018-04-27T10:37:38.358Z,77.15
2018-04-27T10:38:38.416Z,77.15
2018-04-27T10:39:46.072Z,74.46
2018-04-27T10:40:38.733Z,69.58
2018-04-27T10:41:38.902Z,68.60
2018-04-27T10:42:39.097Z,71.04
2018-04-27T10:43:41.147Z,73.24
2018-04-27T10:44:39.441Z,71.78
2018-04-27T10:45:39.606Z,69.58
2018-04-27T10:46:39.779Z,76.42
2018-04-27T10:47:39.946Z,73.97
2018-04-27T10:48:40.113Z,66.89
2018-04-27T10:49:40.283Z,71.78
2018-04-27T10:53:12.722Z,70.31
2018-04-27T10:54:12.889Z,70.31
2018-04-27T10:55:13.061Z,76.42
2018-04-27T10:56:13.429Z,71.29
2018-04-27T10:57:13.401Z,77.64
2018-04-27T10:58:13.558Z,79.10
2018-04-27T11:00:13.883Z,74.71
2018-04-27T11:01:14.035Z,76.66
2018-04-27T11:02:22.184Z,78.86
2018-04-27T11:03:14.346Z,69.34
2018-04-27T11:04:14.521Z,73.24
2018-04-27T11:05:14.672Z,77.39
2018-04-27T11:06:15.104Z,72.27
2018-04-27T11:07:15.048Z,69.82
2018-04-27T11:08:22.374Z,78.61
2018-04-27T11:09:16.130Z,69.09
2018-04-27T11:10:15.545Z,69.09
2018-04-27T11:11:22.874Z,71.29
2018-04-27T11:12:15.914Z,73.00
2018-04-27T11:13:16.079Z,67.63
2018-04-27T11:14:16.250Z,70.56
2018-04-27T11:15:16.419Z,78.61
2018-04-27T11:16:16.623Z,83.50
2018-04-27T11:17:16.758Z,87.16
2018-04-27T11:18:18.665Z,81.54
2018-04-27T11:19:17.073Z,76.66
2018-04-27T11:20:17.333Z,71.53
2018-04-27T11:21:17.394Z,74.22
2018-04-27T11:22:17.565Z,78.37
2018-04-27T11:23:17.727Z,71.04
2018-04-27T11:24:17.911Z,71.53
2018-04-27T11:25:18.071Z,78.13
2018-04-27T11:28:50.577Z,65.67
2018-04-27T11:29:50.749Z,71.78
2018-04-27T11:30:50.895Z,68.36
2018-04-27T11:31:51.095Z,74.46
2018-04-27T11:32:51.406Z,70.80
2018-04-27T11:33:51.438Z,66.41
2018-04-27T11:34:54.374Z,69.34
2018-04-27T11:35:51.785Z,73.00
2018-04-27T11:36:51.951Z,78.13
2018-04-27T11:37:52.124Z,69.58
2018-04-27T11:38:52.300Z,68.60
2018-04-27T11:39:52.473Z,87.40
2018-04-27T11:40:52.642Z,72.27
2018-04-27T11:41:52.877Z,70.56
2018-04-27T11:45:35.244Z,84.96
2018-04-27T11:46:35.441Z,75.68
2018-04-27T11:47:35.588Z,69.09
2018-04-27T11:48:35.756Z,69.09
2018-04-27T11:49:35.931Z,71.53
2018-04-27T11:50:36.094Z,85.69
2018-04-27T11:51:43.452Z,81.30
2018-04-27T11:52:36.365Z,69.58
2018-04-27T11:53:36.686Z,69.34
2018-04-27T11:54:36.713Z,83.01
2018-04-27T11:55:44.088Z,73.97
2018-04-27T11:56:36.997Z,80.08
2018-04-27T11:57:37.147Z,88.87
2018-04-27T11:58:37.315Z,82.76
2018-04-27T11:59:37.486Z,73.49
2018-04-27T12:00:37.671Z,74.71
2018-04-27T12:01:37.875Z,70.80
2018-04-27T12:02:38.017Z,70.07
2018-04-27T12:03:38.155Z,73.97
2018-04-27T12:04:38.325Z,73.24
2018-04-27T12:05:38.677Z,73.00
2018-04-27T12:09:11.197Z,72.27
2018-04-27T12:10:12.250Z,68.85
2018-04-27T12:11:11.530Z,70.80
2018-04-27T12:12:11.695Z,68.36
2018-04-27T12:13:11.858Z,72.27
2018-04-27T12:14:12.744Z,79.10
2018-04-27T12:15:20.123Z,79.83
2018-04-27T12:16:12.280Z,67.38
2018-04-27T12:17:12.463Z,72.02
2018-04-27T12:18:20.250Z,73.97
2018-04-27T12:19:12.755Z,70.31
2018-04-27T12:20:12.933Z,76.42
2018-04-27T12:21:13.091Z,77.39
2018-04-27T12:22:13.772Z,67.38
2018-04-27T12:23:13.438Z,73.49
2018-04-27T12:24:13.608Z,70.31
2018-04-27T12:25:21.730Z,75.68
2018-04-27T12:26:13.893Z,74.46
2018-04-27T12:27:14.057Z,72.27
2018-04-27T12:28:14.236Z,80.81
2018-04-27T12:29:14.408Z,77.88
2018-04-27T12:30:14.593Z,71.78
2018-04-27T12:31:14.846Z,72.02
2018-04-27T12:32:14.994Z,75.44
2018-04-27T12:33:15.465Z,65.19
2018-04-27T12:34:15.928Z,73.49
2018-04-27T12:35:15.595Z,66.89
2018-04-27T12:36:15.647Z,78.13
2018-04-27T12:37:23.793Z,75.44
2018-04-27T12:38:16.024Z,73.49
2018-04-27T12:39:16.192Z,74.22
2018-04-27T12:40:16.481Z,67.14
2018-04-27T12:41:16.831Z,66.65
2018-04-27T12:42:16.718Z,68.36
2018-04-27T12:43:16.879Z,70.31
2018-04-27T12:44:17.051Z,73.00
2018-04-27T12:45:17.221Z,65.92
2018-04-27T12:46:17.385Z,70.56
2018-04-27T12:47:17.552Z,67.87
2018-04-27T12:48:17.723Z,68.36
2018-04-27T12:49:17.919Z,72.27
2018-04-27T12:50:18.090Z,74.22
2018-04-27T12:51:18.262Z,74.46
2018-04-27T12:54:51.131Z,71.78
2018-04-27T12:55:50.897Z,75.20
2018-04-27T12:56:51.052Z,72.75
2018-04-27T12:57:51.400Z,75.68
2018-04-27T12:58:58.502Z,81.79
2018-04-27T12:59:51.561Z,74.95
2018-04-27T13:00:52.572Z,84.23
2018-04-27T13:01:52.447Z,72.75
2018-04-27T13:02:51.986Z,64.70
2018-04-27T13:03:52.155Z,84.72
2018-04-27T13:04:52.477Z,74.95
2018-04-27T13:05:54.109Z,73.49
2018-04-27T13:06:52.847Z,86.18
2018-04-27T13:07:53.141Z,70.80
2018-04-27T13:08:53.258Z,71.29
2018-04-27T13:09:53.284Z,68.60
2018-04-27T13:11:01.497Z,67.14
2018-04-27T13:11:53.664Z,73.97
2018-04-27T13:12:54.796Z,71.29
2018-04-27T13:13:54.600Z,73.00
2018-04-27T13:14:58.936Z,78.13
2018-04-27T13:15:54.309Z,68.85
2018-04-27T13:16:54.627Z,70.31
2018-04-27T13:17:54.721Z,79.35
2018-04-27T13:18:55.682Z,75.20
2018-04-27T13:19:56.309Z,71.53
2018-04-27T13:20:57.026Z,68.60
2018-04-27T13:22:03.235Z,72.51
2018-04-27T13:22:55.399Z,74.22
2018-04-27T13:23:55.643Z,76.17
2018-04-27T13:24:55.743Z,79.59
2018-04-27T13:25:55.914Z,75.44
2018-04-27T13:26:56.078Z,76.17
2018-04-27T13:27:56.247Z,71.04
2018-04-27T13:28:57.121Z,71.29
2018-04-27T13:29:56.551Z,74.46
2018-04-27T13:30:56.720Z,78.61
2018-04-27T13:31:56.889Z,79.35
2018-04-27T13:33:04.740Z,78.86
2018-04-27T13:33:57.266Z,64.94
2018-04-27T13:34:57.432Z,70.56
2018-04-27T13:35:57.605Z,64.45
2018-04-27T13:36:57.771Z,74.46
2018-04-27T13:37:57.974Z,70.56
2018-04-27T13:38:58.138Z,69.58
2018-04-27T13:39:58.379Z,68.60
2018-04-27T13:40:58.469Z,65.19
2018-04-27T13:41:58.658Z,68.12
2018-04-27T13:42:59.567Z,69.58
2018-04-27T13:43:59.009Z,70.31
2018-04-27T13:44:59.166Z,67.63
2018-04-27T13:46:07.044Z,65.19
2018-04-27T13:47:00.377Z,68.12
2018-04-27T13:47:59.605Z,73.97
2018-04-27T13:48:59.725Z,80.32
2018-04-27T13:49:59.908Z,75.44
2018-04-27T13:51:00.075Z,69.34
2018-04-27T13:52:00.244Z,70.56
2018-04-27T13:53:00.407Z,66.16
2018-04-27T13:54:02.161Z,67.38
2018-04-27T13:55:10.910Z,73.00
2018-04-27T13:56:00.836Z,70.31
2018-04-27T13:57:01.024Z,77.88
2018-04-27T13:58:01.190Z,92.04
2018-04-27T13:59:01.372Z,78.37
2018-04-27T14:00:01.564Z,72.51
2018-04-27T14:01:01.731Z,78.61
2018-04-27T14:02:01.898Z,71.53
2018-04-27T14:03:02.115Z,72.27
2018-04-27T14:04:02.234Z,80.32
2018-04-27T14:05:02.395Z,70.07
2018-04-27T14:08:44.945Z,73.49
2018-04-27T14:09:45.161Z,67.87
2018-04-27T14:10:45.293Z,64.45
2018-04-27T14:11:45.498Z,71.29
2018-04-27T14:12:45.618Z,65.43
2018-04-27T14:13:45.767Z,71.53
2018-04-27T14:14:46.503Z,78.86
2018-04-27T14:15:46.220Z,74.95
2018-04-27T14:16:54.210Z,68.12
2018-04-27T14:17:46.417Z,65.67
2018-04-27T14:18:46.522Z,66.65
2018-04-27T14:19:46.687Z,83.01
2018-04-27T14:20:47.711Z,66.16
2018-04-27T14:21:47.006Z,70.80
2018-04-27T14:22:48.787Z,76.90
2018-04-27T14:23:48.223Z,73.97
2018-04-27T14:24:47.510Z,67.87
2018-04-27T14:25:47.683Z,65.19
2018-04-27T14:26:47.857Z,67.38
2018-04-27T14:30:30.290Z,85.69
2018-04-27T14:31:30.461Z,75.93
2018-04-27T14:32:30.628Z,67.14
2018-04-27T14:33:30.797Z,67.87
2018-04-27T14:34:30.966Z,75.20
2018-04-27T14:35:31.150Z,74.22
2018-04-27T14:36:32.148Z,74.46
2018-04-27T14:37:31.450Z,74.22
2018-04-27T14:38:39.770Z,75.44
2018-04-27T14:39:31.808Z,77.39
2018-04-27T14:40:31.969Z,78.61
2018-04-27T14:41:32.132Z,79.83
2018-04-27T14:42:40.259Z,73.24
2018-04-27T14:43:32.420Z,80.81
2018-04-27T14:44:32.584Z,68.12
2018-04-27T14:45:32.748Z,75.93
2018-04-27T14:46:32.946Z,68.60
2018-04-27T14:47:33.079Z,67.38